Time;durP1;ratioP1;P1;durP2;ratioP2;P2;SDS_P1;SDS_P2;PMS_P1;PMS_P2;Temp;Humidity;BMP_temperature;BMP_pressure;BME280_temperature;BME280_humidity;BME280_pressure;Samples;Min_cycle;Max_cycle;Signal;HPM_P1;HPM_P2
2022/03/02 00:01:39;;;;;;;11.07;6.30;;;2.00;80.40;;;;;;4969926;28;20500;-75
2022/03/02 00:04:04;;;;;;;9.93;5.65;;;2.00;80.50;;;;;;4972619;28;20465;-75
2022/03/02 00:06:30;;;;;;;13.15;6.40;;;1.80;81.80;;;;;;4973315;28;20054;-75
2022/03/02 00:08:56;;;;;;;11.10;6.43;;;1.80;81.50;;;;;;4966109;28;20031;-75
2022/03/02 00:11:22;;;;;;;11.85;7.57;;;1.90;81.30;;;;;;4971258;28;20034;-75
2022/03/02 00:13:48;;;;;;;16.98;7.68;;;2.00;81.40;;;;;;4965445;28;20057;-75
2022/03/02 00:16:14;;;;;;;12.52;6.70;;;2.10;81.10;;;;;;4971912;28;20169;-75
2022/03/02 00:18:40;;;;;;;13.55;6.68;;;2.20;80.80;;;;;;4971940;28;20495;-75
2022/03/02 00:21:05;;;;;;;14.23;7.15;;;2.30;80.40;;;;;;4972656;28;20035;-75
2022/03/02 00:23:31;;;;;;;11.32;6.90;;;2.20;80.60;;;;;;4967646;28;20042;-75
2022/03/02 00:25:57;;;;;;;14.95;7.38;;;2.10;81.20;;;;;;4972427;28;20054;-75
2022/03/02 00:28:24;;;;;;;10.90;7.10;;;2.10;80.80;;;;;;4971208;28;20081;-75
2022/03/02 00:30:50;;;;;;;13.07;6.82;;;2.10;80.60;;;;;;4971322;28;20027;-75
2022/03/02 00:33:16;;;;;;;13.27;6.32;;;1.90;81.00;;;;;;4970599;28;20121;-75
2022/03/02 00:35:42;;;;;;;15.65;7.93;;;1.80;81.50;;;;;;4971203;28;20482;-75
2022/03/02 00:38:10;;;;;;;10.30;6.05;;;1.80;81.70;;;;;;4971023;28;20034;-75
2022/03/02 00:40:39;;;;;;;11.88;6.47;;;1.70;82.10;;;;;;4971554;28;20078;-75
2022/03/02 00:43:06;;;;;;;13.52;6.55;;;1.80;82.00;;;;;;4965015;28;20058;-75
2022/03/02 00:45:32;;;;;;;11.43;6.38;;;1.90;81.50;;;;;;4968439;28;20084;-75
2022/03/02 00:48:02;;;;;;;11.63;6.53;;;2.00;81.10;;;;;;4969132;28;20028;-75
2022/03/02 00:50:28;;;;;;;14.20;7.35;;;2.00;81.00;;;;;;4969972;28;20046;-75
2022/03/02 00:52:55;;;;;;;10.65;6.32;;;2.20;80.70;;;;;;4971544;28;20049;-75
2022/03/02 00:55:22;;;;;;;12.27;6.05;;;2.30;80.40;;;;;;4964179;28;20037;-75
2022/03/02 00:57:48;;;;;;;13.82;7.85;;;2.20;80.80;;;;;;4968281;28;20034;-75
2022/03/02 01:00:14;;;;;;;10.93;5.85;;;2.10;81.10;;;;;;4970589;28;20039;-75
2022/03/02 01:02:40;;;;;;;13.10;6.90;;;1.80;81.80;;;;;;4970605;28;20610;-75
2022/03/02 01:05:07;;;;;;;10.65;5.75;;;1.80;81.90;;;;;;4974298;28;20073;-75
2022/03/02 01:07:34;;;;;;;14.02;7.60;;;1.60;82.30;;;;;;4977720;28;20114;-75
2022/03/02 01:10:01;;;;;;;11.55;6.43;;;1.70;82.40;;;;;;4976611;28;20034;-75
2022/03/02 01:12:27;;;;;;;12.13;6.25;;;1.70;82.30;;;;;;4972104;28;20038;-75
2022/03/02 01:14:52;;;;;;;14.07;6.97;;;1.60;82.40;;;;;;4971070;28;20521;-75
2022/03/02 01:17:20;;;;;;;12.98;6.45;;;1.50;83.00;;;;;;4970762;28;20122;-75
2022/03/02 01:19:47;;;;;;;14.88;6.70;;;1.30;83.80;;;;;;4971542;28;20480;-75
2022/03/02 01:22:12;;;;;;;13.25;7.30;;;1.10;84.60;;;;;;4970576;28;20401;-75
2022/03/02 01:24:38;;;;;;;11.30;5.93;;;1.30;84.10;;;;;;4977316;28;20034;-75
2022/03/02 01:27:04;;;;;;;12.60;6.55;;;1.50;83.40;;;;;;4976544;28;20572;-75
2022/03/02 01:29:33;;;;;;;12.82;7.07;;;1.70;82.70;;;;;;4971135;28;20721;-75
2022/03/02 01:32:00;;;;;;;16.67;7.45;;;1.80;82.50;;;;;;4970798;28;20042;-75
2022/03/02 01:34:26;;;;;;;11.80;7.57;;;1.70;82.60;;;;;;4971050;28;20051;-75
2022/03/02 01:36:52;;;;;;;14.43;6.63;;;1.70;82.40;;;;;;4971041;28;20058;-75
2022/03/02 01:39:18;;;;;;;15.65;7.47;;;1.70;82.50;;;;;;4969765;28;20051;-75
2022/03/02 01:41:43;;;;;;;13.50;7.15;;;1.60;82.90;;;;;;4972822;28;20046;-75
2022/03/02 01:44:09;;;;;;;13.40;7.30;;;1.60;83.40;;;;;;4970361;28;20027;-75
2022/03/02 01:46:35;;;;;;;18.90;7.78;;;1.60;83.00;;;;;;4971204;28;20035;-75
2022/03/02 01:49:01;;;;;;;12.73;6.65;;;1.60;82.90;;;;;;4973210;28;20043;-75
2022/03/02 01:51:27;;;;;;;14.50;7.80;;;1.50;83.00;;;;;;4970417;28;20045;-75
2022/03/02 01:53:53;;;;;;;14.48;8.60;;;1.70;82.80;;;;;;4971804;28;20030;-75
2022/03/02 01:56:19;;;;;;;12.70;7.78;;;1.70;82.70;;;;;;4970968;28;20037;-75
2022/03/02 01:58:45;;;;;;;13.13;7.30;;;1.50;83.20;;;;;;4970219;28;20473;-75
2022/03/02 02:01:13;;;;;;;12.65;7.25;;;1.50;83.20;;;;;;4970813;28;20473;-75
2022/03/02 02:03:38;;;;;;;13.20;7.22;;;1.40;83.50;;;;;;4970385;28;20034;-75
2022/03/02 02:06:05;;;;;;;16.08;7.28;;;1.30;83.90;;;;;;4971462;28;20113;-75
2022/03/02 02:08:31;;;;;;;13.13;7.03;;;1.10;84.30;;;;;;4969651;28;20058;-74
2022/03/02 02:11:00;;;;;;;18.33;7.55;;;1.10;84.50;;;;;;4970404;28;20058;-75
2022/03/02 02:13:27;;;;;;;12.30;6.80;;;1.00;84.80;;;;;;4955462;28;20381;-74
2022/03/02 02:15:54;;;;;;;17.30;7.68;;;0.90;85.40;;;;;;4970615;28;20053;-75
2022/03/02 02:18:20;;;;;;;12.93;7.90;;;1.10;84.70;;;;;;4970391;28;20504;-75
2022/03/02 02:20:45;;;;;;;13.50;7.32;;;1.20;84.30;;;;;;4969632;28;20090;-75
2022/03/02 02:23:12;;;;;;;14.80;7.22;;;1.20;84.30;;;;;;4968023;28;20466;-75
2022/03/02 02:25:38;;;;;;;12.90;7.22;;;1.20;84.10;;;;;;4968813;28;20035;-75
2022/03/02 02:28:03;;;;;;;14.38;6.70;;;1.20;84.50;;;;;;4969547;28;20027;-75
2022/03/02 02:30:30;;;;;;;16.63;7.30;;;1.30;84.20;;;;;;4970694;28;20039;-75
2022/03/02 02:32:57;;;;;;;12.57;6.63;;;1.10;84.80;;;;;;4984383;28;20092;-75
2022/03/02 02:35:23;;;;;;;15.63;7.55;;;1.00;85.20;;;;;;4971192;28;20446;-74
2022/03/02 02:37:48;;;;;;;14.77;7.32;;;1.00;85.40;;;;;;4972212;28;20125;-75
2022/03/02 02:40:18;;;;;;;13.45;6.68;;;1.40;84.10;;;;;;4973789;28;20098;-75
2022/03/02 02:42:45;;;;;;;14.52;8.10;;;1.50;83.30;;;;;;4970551;28;20398;-75
2022/03/02 02:45:17;;;;;;;13.13;7.35;;;1.40;83.50;;;;;;4972402;28;20073;-75
2022/03/02 02:47:47;;;;;;;11.02;6.05;;;1.30;83.80;;;;;;4969046;28;20038;-75
2022/03/02 02:50:19;;;;;;;14.07;9.15;;;1.20;83.90;;;;;;4973262;28;20043;-75
2022/03/02 02:52:45;;;;;;;20.90;7.82;;;1.20;84.10;;;;;;4973397;28;20513;-75
2022/03/02 02:55:13;;;;;;;13.13;5.55;;;1.10;84.80;;;;;;4973511;28;20053;-75
2022/03/02 02:57:39;;;;;;;12.88;7.05;;;0.80;85.30;;;;;;4973055;28;20038;-75
2022/03/02 03:00:09;;;;;;;12.23;6.55;;;1.00;84.60;;;;;;4973059;28;20857;-75
2022/03/02 03:02:35;;;;;;;21.10;7.68;;;1.00;84.80;;;;;;4972347;28;20038;-75
2022/03/02 03:05:01;;;;;;;14.80;7.70;;;1.00;84.60;;;;;;4966825;28;20155;-75
2022/03/02 03:07:26;;;;;;;13.52;7.68;;;1.10;84.20;;;;;;4972351;28;20117;-75
2022/03/02 03:09:52;;;;;;;14.13;7.65;;;1.10;84.30;;;;;;4973632;28;20031;-75
2022/03/02 03:12:18;;;;;;;13.18;7.32;;;1.00;84.40;;;;;;4972473;28;20046;-75
2022/03/02 03:14:44;;;;;;;13.00;6.85;;;1.10;84.00;;;;;;4973201;28;20066;-75
2022/03/02 03:17:10;;;;;;;10.05;6.35;;;1.20;83.40;;;;;;4971977;28;20457;-75
2022/03/02 03:19:35;;;;;;;15.43;7.15;;;1.10;84.10;;;;;;4972802;28;20026;-75
2022/03/02 03:22:06;;;;;;;15.05;6.95;;;1.10;83.70;;;;;;4972122;28;20035;-75
2022/03/02 03:24:32;;;;;;;11.68;6.60;;;1.00;84.10;;;;;;4972566;28;20066;-75
2022/03/02 03:26:59;;;;;;;15.80;7.63;;;0.90;84.40;;;;;;4972141;28;20130;-75
2022/03/02 03:29:24;;;;;;;17.42;7.68;;;1.10;83.80;;;;;;4972737;28;20027;-75
2022/03/02 03:31:50;;;;;;;13.70;8.20;;;1.10;83.40;;;;;;4972460;28;20548;-75
2022/03/02 03:34:15;;;;;;;13.13;7.50;;;1.10;83.60;;;;;;4972226;28;20097;-75
2022/03/02 03:36:41;;;;;;;14.73;7.45;;;1.30;82.90;;;;;;4972886;28;20043;-74
2022/03/02 03:39:07;;;;;;;13.50;7.13;;;1.20;83.10;;;;;;4972908;28;20489;-75
2022/03/02 03:41:34;;;;;;;17.63;7.50;;;1.10;83.90;;;;;;4968781;28;20035;-75
2022/03/02 03:44:00;;;;;;;14.63;7.72;;;1.20;83.50;;;;;;4970948;28;20038;-75
2022/03/02 03:46:25;;;;;;;15.88;7.47;;;1.30;83.30;;;;;;4968255;28;20027;-75
2022/03/02 03:48:51;;;;;;;14.32;8.23;;;1.40;83.10;;;;;;4969680;28;20035;-75
2022/03/02 03:51:17;;;;;;;13.18;7.30;;;1.60;83.00;;;;;;4971539;28;20050;-75
2022/03/02 03:53:43;;;;;;;13.25;6.75;;;1.70;82.20;;;;;;4971575;28;20114;-75
2022/03/02 03:56:09;;;;;;;12.50;6.78;;;1.70;82.30;;;;;;4971866;28;20073;-74
2022/03/02 03:58:34;;;;;;;13.48;6.65;;;1.60;82.10;;;;;;4971525;28;20089;-75
2022/03/02 04:01:00;;;;;;;18.10;7.25;;;1.70;82.20;;;;;;4972254;28;20121;-74
2022/03/02 04:03:26;;;;;;;13.48;8.60;;;1.60;82.10;;;;;;4980723;28;20125;-74
2022/03/02 04:05:52;;;;;;;15.48;7.22;;;1.70;81.90;;;;;;4963626;28;20054;-74
2022/03/02 04:08:17;;;;;;;13.40;7.22;;;1.70;81.60;;;;;;4957975;28;20031;-74
2022/03/02 04:10:45;;;;;;;13.13;7.38;;;1.70;82.00;;;;;;4964779;28;20149;-74
2022/03/02 04:13:11;;;;;;;12.77;6.55;;;1.70;81.20;;;;;;4964843;28;20105;-74
2022/03/02 04:15:38;;;;;;;15.05;6.85;;;1.90;80.20;;;;;;4964185;28;20133;-74
2022/03/02 04:18:06;;;;;;;12.43;7.07;;;1.80;81.30;;;;;;4964139;28;20043;-74
2022/03/02 04:20:32;;;;;;;11.77;7.55;;;1.50;81.60;;;;;;4961513;28;20110;-74
2022/03/02 04:22:58;;;;;;;13.95;7.05;;;1.40;81.90;;;;;;4964359;28;20031;-74
2022/03/02 04:25:24;;;;;;;17.45;7.35;;;1.50;81.20;;;;;;4965514;28;20393;-73
2022/03/02 04:27:50;;;;;;;15.75;6.55;;;1.50;81.50;;;;;;4964316;28;20129;-74
2022/03/02 04:30:15;;;;;;;12.93;6.65;;;1.30;81.80;;;;;;4964083;28;20034;-74
2022/03/02 04:32:41;;;;;;;12.95;6.13;;;1.10;82.00;;;;;;4964016;28;20042;-74
2022/03/02 04:35:09;;;;;;;12.57;6.88;;;1.00;82.60;;;;;;4963708;28;20153;-74
2022/03/02 04:37:35;;;;;;;11.73;6.50;;;1.00;82.40;;;;;;4964046;28;20113;-74
2022/03/02 04:40:01;;;;;;;13.55;6.70;;;0.90;82.70;;;;;;4964033;28;20027;-74
2022/03/02 04:42:27;;;;;;;13.20;6.85;;;1.00;82.30;;;;;;4963053;28;20066;-74
2022/03/02 04:44:53;;;;;;;10.80;6.00;;;1.00;82.00;;;;;;4963950;28;20054;-74
2022/03/02 04:47:18;;;;;;;12.40;6.20;;;1.30;81.10;;;;;;4962433;28;20031;-73
2022/03/02 04:49:44;;;;;;;11.73;7.25;;;1.20;81.10;;;;;;4966948;28;20039;-74
2022/03/02 04:52:09;;;;;;;12.15;6.25;;;1.40;80.80;;;;;;4966883;28;20039;-74
2022/03/02 04:57:19;;;;;;;12.60;6.57;;;1.10;81.80;;;;;;4966423;28;20054;-73
2022/03/02 04:59:45;;;;;;;10.65;6.28;;;1.10;81.40;;;;;;4962736;28;20649;-74
2022/03/02 05:02:11;;;;;;;11.05;5.80;;;1.10;81.30;;;;;;4963359;28;20121;-74
2022/03/02 05:04:36;;;;;;;12.27;5.90;;;1.00;81.90;;;;;;4963193;28;20035;-74
2022/03/02 05:07:02;;;;;;;13.57;6.43;;;1.00;81.20;;;;;;4967814;28;20056;-74
2022/03/02 05:09:28;;;;;;;12.45;5.85;;;1.20;80.70;;;;;;4964333;28;20085;-74
2022/03/02 05:11:54;;;;;;;15.13;7.22;;;1.20;80.50;;;;;;4964149;28;20074;-74
2022/03/02 05:14:20;;;;;;;11.63;5.65;;;1.00;81.10;;;;;;4963693;28;20390;-74
2022/03/02 05:16:45;;;;;;;10.35;6.30;;;1.00;81.00;;;;;;4964198;28;20037;-74
2022/03/02 05:19:11;;;;;;;13.10;6.35;;;0.90;81.30;;;;;;4964735;28;20579;-74
2022/03/02 05:21:37;;;;;;;11.13;5.75;;;0.90;81.30;;;;;;4964528;28;20540;-74
2022/03/02 05:24:03;;;;;;;11.55;6.65;;;0.90;81.30;;;;;;4963154;28;20049;-74
2022/03/02 05:26:29;;;;;;;9.60;6.25;;;1.00;80.70;;;;;;4964059;28;20042;-74
2022/03/02 05:28:55;;;;;;;10.35;5.68;;;0.90;81.00;;;;;;4963618;28;20038;-74
2022/03/02 05:31:23;;;;;;;13.57;5.55;;;0.80;80.90;;;;;;4971019;28;20062;-74
2022/03/02 05:33:51;;;;;;;12.50;6.03;;;0.90;80.80;;;;;;4966017;28;20035;-74
2022/03/02 05:36:17;;;;;;;12.27;6.25;;;1.10;80.00;;;;;;4964981;28;20593;-74
2022/03/02 05:38:43;;;;;;;12.20;6.22;;;0.80;81.30;;;;;;4966513;28;20488;-74
2022/03/02 05:41:09;;;;;;;10.07;5.85;;;0.40;82.40;;;;;;4963955;28;20050;-74
2022/03/02 05:43:34;;;;;;;10.55;5.32;;;0.70;81.30;;;;;;4963935;28;20031;-74
2022/03/02 05:46:00;;;;;;;11.48;5.93;;;0.80;81.00;;;;;;4963450;28;20504;-74
2022/03/02 05:48:26;;;;;;;10.82;6.22;;;1.00;80.10;;;;;;4968251;28;20046;-74
2022/03/02 05:50:51;;;;;;;12.95;5.90;;;0.90;80.80;;;;;;4962946;28;20122;-74
2022/03/02 05:53:17;;;;;;;9.65;5.63;;;0.90;81.00;;;;;;4967268;28;20129;-74
2022/03/02 05:55:43;;;;;;;12.30;6.32;;;0.70;80.90;;;;;;4964940;28;20035;-74
2022/03/02 05:58:09;;;;;;;12.82;6.57;;;1.00;80.20;;;;;;4967034;28;20058;-74
2022/03/02 06:00:34;;;;;;;13.30;7.15;;;0.80;80.30;;;;;;4963295;28;20084;-74
2022/03/02 06:03:00;;;;;;;10.77;6.28;;;1.20;79.40;;;;;;4963660;28;20047;-74
2022/03/02 06:05:26;;;;;;;13.07;7.22;;;1.20;79.40;;;;;;4964040;28;20058;-74
2022/03/02 06:07:51;;;;;;;12.38;6.57;;;0.90;80.30;;;;;;4961026;28;20027;-74
2022/03/02 06:10:18;;;;;;;11.38;6.38;;;0.70;81.60;;;;;;4964009;28;20133;-74
2022/03/02 06:12:44;;;;;;;14.27;6.50;;;0.70;81.20;;;;;;4966868;28;20465;-74
2022/03/02 06:15:12;;;;;;;12.43;6.78;;;0.90;80.30;;;;;;4967371;28;20086;-74
2022/03/02 06:17:38;;;;;;;10.57;5.70;;;1.20;79.60;;;;;;4967024;28;20089;-74
2022/03/02 06:20:05;;;;;;;11.75;5.95;;;1.10;80.00;;;;;;4963867;28;20129;-74
2022/03/02 06:22:31;;;;;;;8.88;4.85;;;0.80;81.20;;;;;;4965101;28;20099;-74
2022/03/02 06:24:58;;;;;;;13.20;6.03;;;0.80;81.40;;;;;;4965152;28;20030;-74
2022/03/02 06:27:24;;;;;;;11.20;5.55;;;0.70;81.40;;;;;;4966615;28;20084;-73
2022/03/02 06:29:49;;;;;;;13.80;6.10;;;0.90;80.60;;;;;;4970852;28;20054;-75
2022/03/02 06:32:15;;;;;;;10.98;6.00;;;1.20;79.80;;;;;;4966977;28;20050;-75
2022/03/02 06:34:42;;;;;;;13.13;6.03;;;1.10;79.80;;;;;;4965800;28;20039;-76
2022/03/02 06:37:08;;;;;;;11.35;6.68;;;1.40;79.90;;;;;;4960310;28;20085;-74
2022/03/02 06:39:33;;;;;;;12.35;5.50;;;1.40;79.80;;;;;;4971641;28;20511;-75
2022/03/02 06:42:18;;;;;;;11.60;6.10;;;1.40;79.30;;;;;;4966131;28;20035;-73
2022/03/02 06:45:26;;;;;;;10.60;5.55;;;1.50;78.90;;;;;;4966886;28;20027;-73
2022/03/02 06:47:56;;;;;;;12.35;6.78;;;1.60;78.00;;;;;;4961427;28;20070;-72
2022/03/02 06:50:25;;;;;;;13.48;5.47;;;1.60;78.00;;;;;;4962193;28;20041;-73
2022/03/02 06:52:54;;;;;;;13.95;5.70;;;1.50;80.30;;;;;;4966473;28;20038;-73
2022/03/02 06:55:21;;;;;;;8.07;4.60;;;1.40;79.70;;;;;;4965589;28;20089;-73
2022/03/02 06:57:57;;;;;;;11.88;6.80;;;1.50;78.40;;;;;;4966121;28;20132;-73
2022/03/02 07:00:25;;;;;;;12.90;5.57;;;1.50;79.30;;;;;;4965748;28;20885;-73
2022/03/02 07:03:01;;;;;;;10.75;5.72;;;1.30;80.20;;;;;;4967100;28;20086;-73
2022/03/02 07:05:27;;;;;;;10.70;6.28;;;1.40;78.60;;;;;;4965393;28;20405;-73
2022/03/02 07:07:52;;;;;;;11.32;5.90;;;1.60;78.30;;;;;;4965913;28;20027;-73
2022/03/02 07:10:18;;;;;;;10.77;6.28;;;1.70;78.00;;;;;;4965660;28;20057;-73
2022/03/02 07:12:44;;;;;;;11.27;5.78;;;1.60;78.80;;;;;;4965281;28;20137;-73
2022/03/02 07:15:11;;;;;;;12.55;5.70;;;1.70;77.80;;;;;;4964994;28;20039;-73
2022/03/02 07:17:37;;;;;;;9.73;6.13;;;1.90;77.10;;;;;;4966197;28;20395;-73
2022/03/02 07:20:11;;;;;;;14.63;7.47;;;1.90;78.00;;;;;;4965829;28;20034;-73
2022/03/02 07:22:52;;;;;;;13.00;6.88;;;1.20;81.50;;;;;;4964750;28;20038;-73
2022/03/02 07:25:26;;;;;;;11.95;6.47;;;1.20;80.90;;;;;;4965484;28;20717;-73
2022/03/02 07:27:55;;;;;;;11.93;6.28;;;1.60;78.40;;;;;;4965180;28;20359;-73
2022/03/02 07:30:21;;;;;;;12.75;5.72;;;1.80;77.50;;;;;;4965883;28;20106;-73
2022/03/02 07:32:47;;;;;;;13.73;5.47;;;1.80;78.00;;;;;;4964552;28;20053;-73
2022/03/02 07:35:16;;;;;;;13.10;6.68;;;1.90;78.60;;;;;;4962566;28;20034;-72
2022/03/02 07:37:44;;;;;;;12.02;5.50;;;2.00;78.40;;;;;;4965329;28;20030;-73
2022/03/02 07:40:10;;;;;;;12.77;6.93;;;2.00;79.10;;;;;;4963365;28;20038;-73
2022/03/02 07:42:37;;;;;;;14.07;7.00;;;2.10;78.50;;;;;;4965434;28;20602;-73
2022/03/02 07:45:04;;;;;;;15.82;8.30;;;2.10;79.10;;;;;;4965763;28;20127;-73
2022/03/02 07:47:30;;;;;;;14.30;7.97;;;1.70;81.40;;;;;;4965115;28;20154;-73
2022/03/02 07:49:55;;;;;;;11.35;5.63;;;1.60;80.80;;;;;;4965269;28;20449;-73
2022/03/02 07:52:26;;;;;;;10.23;5.38;;;1.80;78.70;;;;;;4964741;28;20564;-73
2022/03/02 07:54:58;;;;;;;11.25;5.38;;;2.00;76.70;;;;;;4965539;28;20039;-73
2022/03/02 07:57:24;;;;;;;9.82;5.40;;;2.10;75.80;;;;;;4964859;28;20041;-73
2022/03/02 07:59:52;;;;;;;11.68;5.57;;;2.20;76.10;;;;;;4964827;28;20037;-73
2022/03/02 08:02:21;;;;;;;12.50;5.95;;;2.20;76.10;;;;;;4965146;28;20038;-73
2022/03/02 08:04:51;;;;;;;12.45;6.40;;;2.20;76.10;;;;;;4963381;28;20035;-73
2022/03/02 08:07:18;;;;;;;12.25;6.28;;;2.20;75.80;;;;;;4964225;28;20058;-73
2022/03/02 08:09:44;;;;;;;12.07;5.90;;;2.20;76.30;;;;;;4965722;28;20481;-73
2022/03/02 08:12:11;;;;;;;11.55;5.85;;;2.30;76.10;;;;;;4964544;28;20046;-73
2022/03/02 08:14:38;;;;;;;13.55;6.55;;;2.20;76.50;;;;;;4965694;28;20039;-73
2022/03/02 08:17:04;;;;;;;12.85;6.53;;;2.20;75.90;;;;;;4965354;28;20372;-72
2022/03/02 08:19:31;;;;;;;11.82;6.18;;;2.40;76.00;;;;;;4965578;28;20030;-74
2022/03/02 08:22:04;;;;;;;12.25;6.30;;;2.40;75.50;;;;;;4965285;28;20113;-80
2022/03/02 08:24:31;;;;;;;12.02;6.93;;;2.60;74.40;;;;;;4962674;28;20023;-74
2022/03/02 08:26:59;;;;;;;14.38;6.38;;;2.50;76.90;;;;;;4961564;28;20031;-74
2022/03/02 08:29:32;;;;;;;10.02;5.35;;;2.80;78.00;;;;;;4957320;28;20109;-74
2022/03/02 08:32:00;;;;;;;10.70;5.55;;;2.60;75.50;;;;;;4964115;28;20054;-74
2022/03/02 08:34:27;;;;;;;11.63;6.80;;;2.70;75.60;;;;;;4961181;28;20031;-73
2022/03/02 08:36:53;;;;;;;14.57;6.68;;;2.80;75.60;;;;;;4958382;28;20026;-74
2022/03/02 08:39:19;;;;;;;15.52;5.70;;;2.80;75.60;;;;;;4965782;28;20034;-74
2022/03/02 08:41:45;;;;;;;66.07;10.73;;;3.00;75.30;;;;;;4965624;28;20117;-74
2022/03/02 08:44:12;;;;;;;15.35;6.85;;;3.10;77.40;;;;;;4958435;28;20109;-74
2022/03/02 08:46:39;;;;;;;13.73;7.45;;;3.00;77.80;;;;;;4957399;28;20477;-74
2022/03/02 08:49:05;;;;;;;13.00;7.10;;;3.00;77.50;;;;;;4960498;28;20050;-74
2022/03/02 08:51:33;;;;;;;15.93;6.53;;;3.00;76.80;;;;;;4965573;28;20037;-74
2022/03/02 08:54:00;;;;;;;11.90;6.35;;;3.10;74.90;;;;;;4964854;28;20093;-74
2022/03/02 08:56:26;;;;;;;11.02;5.70;;;3.20;73.40;;;;;;4964832;28;20030;-74
2022/03/02 08:58:54;;;;;;;15.70;6.00;;;3.20;75.40;;;;;;4965176;28;20125;-73
2022/03/02 09:01:19;;;;;;;12.95;5.72;;;3.20;74.30;;;;;;4965265;28;20485;-74
2022/03/02 09:03:48;;;;;;;13.45;5.85;;;3.20;73.50;;;;;;4960066;28;20114;-74
2022/03/02 09:06:18;;;;;;;12.35;7.18;;;3.20;73.10;;;;;;4956362;28;20058;-74
2022/03/02 09:08:44;;;;;;;11.07;6.13;;;3.30;73.60;;;;;;4957805;28;20053;-74
2022/03/02 09:11:09;;;;;;;14.55;5.57;;;3.30;72.30;;;;;;4965048;28;20034;-74
2022/03/02 09:13:37;;;;;;;10.93;6.13;;;3.40;71.60;;;;;;4964612;28;20050;-74
2022/03/02 09:16:04;;;;;;;9.77;5.35;;;3.40;71.90;;;;;;4964809;28;20030;-74
2022/03/02 09:18:30;;;;;;;9.00;5.43;;;3.50;71.40;;;;;;4961154;28;20038;-74
2022/03/02 09:21:02;;;;;;;13.93;5.75;;;3.60;72.20;;;;;;4965296;28;20385;-74
2022/03/02 09:23:30;;;;;;;13.40;6.03;;;3.60;72.00;;;;;;4964940;28;20038;-74
2022/03/02 09:26:04;;;;;;;8.77;5.13;;;3.70;70.90;;;;;;4964822;28;20034;-74
2022/03/02 09:28:34;;;;;;;10.10;5.85;;;3.70;71.30;;;;;;4964633;28;20090;-74
2022/03/02 09:31:06;;;;;;;9.80;5.18;;;3.70;72.30;;;;;;4964382;28;20393;-74
2022/03/02 09:33:34;;;;;;;10.70;5.63;;;3.90;72.40;;;;;;4964450;28;20554;-74
2022/03/02 09:36:11;;;;;;;13.00;5.78;;;3.90;71.40;;;;;;4964486;28;20528;-74
2022/03/02 09:38:38;;;;;;;11.70;6.20;;;3.90;71.40;;;;;;4961207;28;20116;-75
2022/03/02 09:41:07;;;;;;;10.50;6.00;;;4.10;71.00;;;;;;4964649;28;20493;-74
2022/03/02 09:43:35;;;;;;;12.73;5.78;;;4.30;71.30;;;;;;4964577;28;20050;-74
2022/03/02 09:46:10;;;;;;;11.65;5.18;;;4.50;71.00;;;;;;4967361;28;20098;-74
2022/03/02 09:48:46;;;;;;;11.55;5.70;;;4.40;70.70;;;;;;4968369;28;20030;-74
2022/03/02 09:51:23;;;;;;;11.23;5.53;;;4.50;70.80;;;;;;4968654;28;20061;-74
2022/03/02 09:53:53;;;;;;;9.27;5.68;;;4.50;70.50;;;;;;4968848;28;20093;-74
2022/03/02 09:56:22;;;;;;;11.75;5.60;;;4.40;69.60;;;;;;4969008;28;20991;-74
2022/03/02 09:58:51;;;;;;;15.40;6.13;;;4.50;70.90;;;;;;4968052;28;20038;-74
2022/03/02 10:01:22;;;;;;;13.70;5.70;;;4.60;69.30;;;;;;4968639;28;20672;-74
2022/03/02 10:03:50;;;;;;;10.93;5.80;;;4.60;69.30;;;;;;4956116;28;20133;-74
2022/03/02 10:06:20;;;;;;;11.38;6.10;;;4.70;69.30;;;;;;4967901;28;20125;-74
2022/03/02 10:08:51;;;;;;;13.55;5.90;;;4.80;68.80;;;;;;4968471;28;20042;-74
2022/03/02 10:11:23;;;;;;;9.10;5.28;;;4.90;69.40;;;;;;4968266;28;20121;-74
2022/03/02 10:13:50;;;;;;;10.18;5.65;;;5.30;70.50;;;;;;4967192;28;20527;-74
2022/03/02 10:16:27;;;;;;;16.90;4.80;;;5.40;68.70;;;;;;4967879;28;20596;-74
2022/03/02 10:19:05;;;;;;;12.13;6.28;;;5.50;68.50;;;;;;4967527;28;20058;-74
2022/03/02 10:21:40;;;;;;;11.27;6.45;;;5.80;69.70;;;;;;4967586;28;20042;-74
2022/03/02 10:24:13;;;;;;;13.10;6.43;;;5.80;68.60;;;;;;4966888;28;20484;-75
2022/03/02 10:26:50;;;;;;;18.50;6.63;;;5.60;68.00;;;;;;4967005;28;20516;-74
2022/03/02 10:29:30;;;;;;;11.10;5.55;;;5.70;69.60;;;;;;4966392;28;20038;-74
2022/03/02 10:32:08;;;;;;;13.57;5.65;;;5.80;67.00;;;;;;4956385;28;20086;-74
2022/03/02 10:34:36;;;;;;;20.45;9.85;;;6.00;68.00;;;;;;4962439;28;20041;-74
2022/03/02 10:37:05;;;;;;;14.75;6.55;;;6.10;66.90;;;;;;4966573;28;20046;-74
2022/03/02 10:39:51;;;;;;;16.73;6.93;;;6.30;67.10;;;;;;4966991;28;20042;-74
2022/03/02 10:42:22;;;;;;;8.77;5.47;;;6.50;66.00;;;;;;4966085;28;20061;-74
2022/03/02 10:45:01;;;;;;;11.85;5.93;;;6.80;67.40;;;;;;4966864;28;20031;-74
2022/03/02 10:47:29;;;;;;;10.70;5.97;;;6.90;65.90;;;;;;4967084;28;20076;-74
2022/03/02 10:49:58;;;;;;;11.57;6.10;;;7.20;66.20;;;;;;4967338;28;20034;-74
2022/03/02 10:52:26;;;;;;;10.65;5.60;;;7.20;66.50;;;;;;4967160;28;20042;-75
2022/03/02 10:54:56;;;;;;;11.00;6.47;;;6.90;66.30;;;;;;4967163;28;20058;-74
2022/03/02 10:57:24;;;;;;;10.70;6.47;;;7.10;66.30;;;;;;4966270;28;20642;-74
2022/03/02 10:59:53;;;;;;;13.73;7.45;;;7.00;66.00;;;;;;4967121;28;20105;-74
2022/03/02 11:02:21;;;;;;;11.63;6.03;;;6.90;66.20;;;;;;4966593;28;20363;-74
2022/03/02 11:04:48;;;;;;;14.27;5.82;;;7.00;66.20;;;;;;4966814;28;20038;-74
2022/03/02 11:07:16;;;;;;;11.43;5.90;;;7.10;67.00;;;;;;4965987;28;20413;-74
2022/03/02 11:09:49;;;;;;;10.45;6.32;;;7.00;66.10;;;;;;4966419;28;20031;-74
2022/03/02 11:12:15;;;;;;;10.27;6.38;;;6.90;65.70;;;;;;4965641;28;20085;-74
2022/03/02 11:15:02;;;;;;;9.82;5.47;;;6.90;65.50;;;;;;4958831;28;20038;-74
2022/03/02 11:17:28;;;;;;;12.82;6.43;;;7.00;65.70;;;;;;4963537;28;20034;-75
2022/03/02 11:19:56;;;;;;;12.85;6.18;;;7.00;65.80;;;;;;4971191;28;20022;-74
2022/03/02 11:22:24;;;;;;;12.55;6.38;;;6.90;65.60;;;;;;4960157;28;20041;-74
2022/03/02 11:24:58;;;;;;;11.48;6.00;;;6.90;65.20;;;;;;4966768;28;20117;-74
2022/03/02 11:27:35;;;;;;;11.57;6.07;;;6.80;64.80;;;;;;4969042;28;20034;-74
2022/03/02 11:30:06;;;;;;;13.05;6.85;;;7.10;66.00;;;;;;4968404;28;20031;-74
2022/03/02 11:32:34;;;;;;;11.07;5.90;;;7.40;65.70;;;;;;4969040;28;20038;-74
2022/03/02 11:35:02;;;;;;;12.55;6.97;;;7.40;65.40;;;;;;4969440;28;20474;-74
2022/03/02 11:37:28;;;;;;;14.73;7.22;;;7.50;65.50;;;;;;4969184;28;20094;-74
2022/03/02 11:39:54;;;;;;;15.88;7.55;;;7.90;66.00;;;;;;4966398;28;20026;-74
2022/03/02 11:42:28;;;;;;;15.40;6.35;;;7.90;65.10;;;;;;4980516;28;20032;-74
2022/03/02 11:44:56;;;;;;;11.90;6.35;;;7.60;65.60;;;;;;4968824;28;20083;-74
2022/03/02 11:47:23;;;;;;;11.68;5.95;;;7.60;66.60;;;;;;4967114;28;20646;-74
2022/03/02 11:49:50;;;;;;;10.55;6.40;;;7.70;65.70;;;;;;4969028;28;20127;-73
2022/03/02 11:52:19;;;;;;;14.45;7.68;;;8.00;66.20;;;;;;4967248;28;20038;-72
2022/03/02 11:54:59;;;;;;;13.82;6.93;;;8.20;65.60;;;;;;4968521;28;20110;-74
2022/03/02 11:57:29;;;;;;;10.48;6.68;;;8.30;66.10;;;;;;4967678;28;20118;-73
2022/03/02 12:00:14;;;;;;;12.27;6.53;;;8.50;65.50;;;;;;4968810;28;20039;-72
2022/03/02 12:02:48;;;;;;;11.52;6.78;;;8.80;65.80;;;;;;4968997;28;20123;-74
2022/03/02 12:05:15;;;;;;;;;;;8.60;65.30;;;;;;4968868;28;20392;-75
2022/03/02 12:07:42;;;;;;;11.98;6.72;;;8.60;64.60;;;;;;4967524;28;19910;-74
2022/03/02 12:10:28;;;;;;;9.25;5.93;;;8.70;64.30;;;;;;4968221;28;20036;-74
2022/03/02 12:12:56;;;;;;;14.75;7.03;;;8.90;65.00;;;;;;4968462;28;20043;-75
2022/03/02 12:15:23;;;;;;;19.60;7.18;;;9.10;64.70;;;;;;4962167;28;20095;-74
2022/03/02 12:17:49;;;;;;;11.52;6.68;;;9.20;65.70;;;;;;4967994;28;20042;-74
2022/03/02 12:20:21;;;;;;;12.10;6.30;;;9.30;64.50;;;;;;4967501;28;20027;-75
2022/03/02 12:22:48;;;;;;;10.50;6.43;;;9.40;65.20;;;;;;4967920;28;20102;-75
2022/03/02 12:25:17;;;;;;;11.80;6.50;;;9.30;64.00;;;;;;4968321;28;20023;-75
2022/03/02 12:27:56;;;;;;;14.48;7.53;;;9.10;63.70;;;;;;4968413;28;20030;-75
2022/03/02 12:30:21;;;;;;;13.65;6.47;;;9.10;64.70;;;;;;4967336;28;20019;-73
2022/03/02 12:32:47;;;;;;;13.02;6.97;;;9.30;64.90;;;;;;4968098;28;20584;-73
2022/03/02 12:35:13;;;;;;;13.02;6.78;;;9.30;64.50;;;;;;4968249;28;20409;-73
2022/03/02 12:37:39;;;;;;;22.10;12.55;;;9.50;64.50;;;;;;4968032;28;20030;-73
2022/03/02 12:40:11;;;;;;;13.93;7.88;;;9.50;63.50;;;;;;4967742;28;20097;-73
2022/03/02 12:42:39;;;;;;;14.38;7.72;;;9.50;64.00;;;;;;4967847;28;20035;-73
2022/03/02 12:45:05;;;;;;;12.70;6.57;;;9.50;63.00;;;;;;4954193;28;20343;-73
2022/03/02 12:47:32;;;;;;;19.27;7.47;;;9.20;63.40;;;;;;4966795;28;20528;-74
2022/03/02 12:50:00;;;;;;;15.68;7.10;;;9.30;63.60;;;;;;4967091;28;20053;-73
2022/03/02 12:52:28;;;;;;;13.63;7.30;;;9.40;63.00;;;;;;4960671;28;20529;-73
2022/03/02 12:54:55;;;;;;;11.32;6.82;;;9.30;62.20;;;;;;4968241;28;20034;-73